Porter DH8D at Fredericton on Jun 28th 2024, tail strike

Last Update: July 10, 2024 / 15:43:00 GMT/Zulu time

Bookmark this article
Incident Facts

Date of incident
Jun 28, 2024

Classification
Accident

Flight number
PD-2375

Aircraft Registration
C-GLQP

ICAO Type Designator
DH8D

Airport ICAO Code
CYFC

A Porter Airlines de Havilland Dash 8-400, registration C-GLQP performing flight PD-2375 from Ottawa,ON to Fredericton,NB (Canada), was landing on Fredricton's runway 27 at 14:00L (17:00Z) when the aircraft's tail struck the runway. The crew initiated a go around, climbed to 2000 feet and positioned for another approach to runway 27. The aircraft landed without further incident about 8 minutes after the go around.

The aircraft was unable to continue its schedule and is still on the ground in Fredericton (standing Jul 10th 2024).

The Canadian TSB reported: "During approach to landing phase, the aircraft experienced a tail strike which resulted in the flight crew conducted a go around. Returning to the airport, the flight completed a visual circuit and landed without further incident. The touch runway sensor was illuminated, and the flight crew contacted company operations to advise of the occurrence. Ground crew personal discovered that the underside of the fuselage near the rear cargo door was substantially damaged and reported it immediately. The TSB deployed two investigators to gather information and examine the aircraft."

Metars:
CYFC 281900Z AUTO 33012G18KT 280V350 9SM BKN066 BKN080 22/09 A2998 RMK SLP155 DENSITY ALT 800FT=
CYFC 281815Z AUTO 35012G17KT 9SM SCT071 22/08 A2998 RMK WSHFT AT 1800Z SLP153 DENSITY ALT 800FT=
CYFC 281800Z AUTO 30009G16KT 9SM FEW066 21/08 A2998 RMK SLP153 DENSITY ALT 800FT=
CYFC 281700Z AUTO 32014KT 9SM BKN071 BKN080 21/10 A2997 RMK SLP152 DENSITY ALT 800FT=
CYFC 281600Z AUTO 33015G20KT 9SM SCT066 SCT075 21/07 A2996 RMK SLP147 DENSITY ALT 700FT=
CYFC 281529Z AUTO 32017G25KT 290V360 9SM SCT055 SCT072 20/08 A2995 RMK SLP144 DENSITY ALT 700FT=
CYFC 281500Z AUTO 30006G17KT 9SM BKN060 18/09 A2994 RMK SLP140 DENSITY ALT 500FT=
CYFC 281400Z AUTO 32009G16KT 290V350 9SM FEW043 18/09 A2992 RMK SLP134 DENSITY ALT 500FT=
CYFC 281300Z AUTO 33013KT 9SM CLR 17/10 A2989 RMK SLP125 DENSITY ALT 400FT=
Aircraft Registration Data
Registration mark
C-GLQP
Country of Registration
Canada
Date of Registration
NnAljjnjbbhfmhpfki Subscribe to unlock
Certification Basis
Kgjqn pddlfgecbjipp lefdfecbqAqplcdqqpgpj qjA Subscribe to unlock
TCDS Ident. No.
Manufacturer
Dehavilland
Aircraft Model / Type
DHC-8-402
ICAO Aircraft Type
DH8D
Year of Manufacture
Serial Number
Aircraft Address / Mode S Code (HEX)
Maximum Take off Mass (MTOM) [kg]
Engine Count
Engine Type
Main Owner
Jjgjqkkgnbm ffAkmhbh Anpgd glgmiA gpfeecibk dmhfgAcAcbgjcnejjpehgppbljpdAAmnlfeddb bffi Subscribe to unlock

Aircraft registration data reproduced and distributed with the permission of the Government of Canada.

Incident Facts

Date of incident
Jun 28, 2024

Classification
Accident

Flight number
PD-2375

Aircraft Registration
C-GLQP

ICAO Type Designator
DH8D

Airport ICAO Code
CYFC

This article is published under license from Avherald.com. © of text by Avherald.com.
Article source

You can read 2 more free articles without a subscription.

Subscribe now and continue reading without any limits!

Are you a subscriber? Login
Subscribe

Read unlimited articles and receive our daily update briefing. Gain better insights into what is happening in commercial aviation safety.

Send tip

Support AeroInside by sending a small tip amount.

Related articles

Newest articles

Subscribe today

Are you researching aviation incidents? Get access to AeroInside Insights, unlimited read access and receive the daily newsletter.

Pick your plan and subscribe

Partner

Blockaviation logo

A new way to document and demonstrate airworthiness compliance and aircraft value. Find out more.

ELITE Logo

ELITE Simulation Solutions is a leading global provider of Flight Simulation Training Devices, IFR training software as well as flight controls and related services. Find out more.

Blue Altitude Logo

Your regulation partner, specialists in aviation safety and compliance; providing training, auditing, and consultancy services. Find out more.

AeroInside Blog
Popular aircraft
Airbus A320
Boeing 737-800
Boeing 737-800 MAX
Popular airlines
American Airlines
United
Delta
Air Canada
Lufthansa
British Airways